createdAt,value
2022-09-14T00:00:32.843Z,4.70
2022-09-14T00:03:28.976Z,4.40
2022-09-14T00:06:06.750Z,4.60
2022-09-14T00:08:39.048Z,4.50
2022-09-14T00:11:13.923Z,4.50
2022-09-14T00:13:48.694Z,4.60
2022-09-14T00:16:23.827Z,5.00
2022-09-14T00:18:59.571Z,4.80
2022-09-14T00:21:37.861Z,4.40
2022-09-14T00:24:11.183Z,4.20
2022-09-14T00:26:43.678Z,4.60
2022-09-14T00:29:17.161Z,4.40
2022-09-14T00:31:51.142Z,4.30
2022-09-14T00:34:24.878Z,4.30
2022-09-14T00:36:57.734Z,4.30
2022-09-14T00:39:29.710Z,4.20
2022-09-14T00:42:03.857Z,4.40
2022-09-14T00:45:18.202Z,4.60
2022-09-14T00:47:58.251Z,4.60
2022-09-14T00:50:31.761Z,4.90
2022-09-14T00:53:05.561Z,4.10
2022-09-14T00:55:38.021Z,4.20
2022-09-14T00:58:10.761Z,4.50
2022-09-14T01:00:45.257Z,4.00
2022-09-14T01:03:20.834Z,4.40
2022-09-14T01:06:06.404Z,4.30
2022-09-14T01:09:05.327Z,4.50
2022-09-14T01:11:51.801Z,4.40
2022-09-14T01:14:31.326Z,4.40
2022-09-14T01:17:11.885Z,4.30
2022-09-14T01:20:22.312Z,4.50
2022-09-14T01:23:06.511Z,4.80
2022-09-14T01:25:51.332Z,4.50
2022-09-14T01:28:30.692Z,4.50
2022-09-14T01:31:04.986Z,4.30
2022-09-14T01:33:41.525Z,4.60
2022-09-14T01:36:16.422Z,4.50
2022-09-14T01:38:50.439Z,4.60
2022-09-14T01:41:30.693Z,4.60
2022-09-14T01:44:04.710Z,4.30
2022-09-14T01:46:43.066Z,4.80
2022-09-14T01:49:20.044Z,4.30
2022-09-14T01:51:56.334Z,4.40
2022-09-14T01:54:34.755Z,3.80
2022-09-14T01:57:19.013Z,4.60
2022-09-14T01:59:56.191Z,4.20
2022-09-14T02:02:32.611Z,4.30
2022-09-14T02:05:11.983Z,4.20
2022-09-14T02:07:46.936Z,4.10
2022-09-14T02:10:20.238Z,4.10
2022-09-14T02:12:53.760Z,4.30
2022-09-14T02:15:31.293Z,4.00
2022-09-14T02:18:03.919Z,4.70
2022-09-14T02:20:40.087Z,5.20
2022-09-14T02:23:16.395Z,4.70
2022-09-14T02:25:50.484Z,4.70
2022-09-14T02:28:25.101Z,4.50
2022-09-14T02:31:11.513Z,4.60
2022-09-14T02:34:06.158Z,4.80
2022-09-14T02:36:50.214Z,5.00
2022-09-14T02:39:33.338Z,4.60
2022-09-14T02:42:16.845Z,4.90
2022-09-14T02:44:57.168Z,4.90
2022-09-14T02:47:36.033Z,4.90
2022-09-14T02:50:14.100Z,5.40
2022-09-14T02:52:52.894Z,5.50
2022-09-14T02:55:26.970Z,6.10
2022-09-14T02:58:08.667Z,5.60
2022-09-14T03:00:47.230Z,5.30
2022-09-14T03:03:22.980Z,5.50
2022-09-14T03:05:57.069Z,5.80
2022-09-14T03:08:30.347Z,6.20
2022-09-14T03:11:10.118Z,6.50
2022-09-14T03:13:43.308Z,5.90
2022-09-14T03:16:17.489Z,5.80
2022-09-14T03:18:51.561Z,6.40
2022-09-14T03:21:24.346Z,6.30
2022-09-14T03:23:57.986Z,6.10
2022-09-14T03:26:32.029Z,5.50
2022-09-14T03:29:04.818Z,5.50
2022-09-14T03:31:37.642Z,5.80
2022-09-14T03:34:11.972Z,5.50
2022-09-14T03:36:43.931Z,5.80
2022-09-14T03:39:16.660Z,5.90
2022-09-14T03:41:50.507Z,5.90
2022-09-14T03:44:22.903Z,5.30
2022-09-14T03:46:55.209Z,5.80
2022-09-14T03:49:29.188Z,5.80
2022-09-14T03:52:03.938Z,5.80
2022-09-14T03:54:39.177Z,5.70
2022-09-14T03:57:11.810Z,5.80
2022-09-14T03:59:45.478Z,5.40
2022-09-14T04:02:17.901Z,5.70
2022-09-14T04:04:50.073Z,5.60
2022-09-14T04:07:22.184Z,6.20
2022-09-14T04:09:54.120Z,5.60
2022-09-14T04:12:26.667Z,5.60
2022-09-14T04:14:58.718Z,5.80
2022-09-14T04:17:30.947Z,5.70
2022-09-14T04:20:03.107Z,5.60
2022-09-14T04:22:36.708Z,5.80
2022-09-14T04:25:09.985Z,5.60
2022-09-14T04:27:41.893Z,6.00
2022-09-14T04:30:15.702Z,5.60
2022-09-14T04:32:48.051Z,5.40
2022-09-14T04:35:20.576Z,5.70
2022-09-14T04:37:52.741Z,6.20
2022-09-14T04:40:25.040Z,5.50
2022-09-14T04:42:56.960Z,6.30
2022-09-14T04:45:29.130Z,6.20
2022-09-14T04:48:01.043Z,6.00
2022-09-14T04:50:34.702Z,5.70
2022-09-14T04:53:06.836Z,6.00
2022-09-14T04:55:39.258Z,6.30
2022-09-14T04:58:11.329Z,6.30
2022-09-14T05:00:43.442Z,7.10
2022-09-14T05:03:15.771Z,6.60
2022-09-14T05:05:48.444Z,6.70
2022-09-14T05:08:20.737Z,6.80
2022-09-14T05:10:55.670Z,7.00
2022-09-14T05:13:28.242Z,6.90
2022-09-14T05:16:07.728Z,6.70
2022-09-14T05:18:40.018Z,6.60
2022-09-14T05:21:13.708Z,6.30
2022-09-14T05:23:46.398Z,7.00
2022-09-14T05:26:18.314Z,7.20
2022-09-14T05:28:55.213Z,7.10
2022-09-14T05:31:29.320Z,7.30
2022-09-14T05:34:03.193Z,7.30
2022-09-14T05:36:36.846Z,7.40
2022-09-14T05:39:09.930Z,7.70
2022-09-14T05:41:41.866Z,7.10
2022-09-14T05:44:15.075Z,6.90
2022-09-14T05:46:47.234Z,6.70
2022-09-14T05:49:19.300Z,6.30
2022-09-14T05:51:51.755Z,6.40
2022-09-14T05:54:23.959Z,6.50
2022-09-14T05:56:56.020Z,5.90
2022-09-14T05:59:31.826Z,6.10
2022-09-14T06:02:04.153Z,6.40
2022-09-14T06:04:36.492Z,6.70
2022-09-14T06:07:18.435Z,5.80
2022-09-14T06:09:51.294Z,6.50
2022-09-14T06:12:23.467Z,6.10
2022-09-14T06:14:55.366Z,6.80
2022-09-14T06:17:27.598Z,5.90
2022-09-14T06:20:04.038Z,6.30
2022-09-14T06:22:37.040Z,6.30
2022-09-14T06:25:11.533Z,6.00
2022-09-14T06:27:43.535Z,6.30
2022-09-14T06:30:17.012Z,6.20
2022-09-14T06:32:49.172Z,6.50
2022-09-14T06:35:21.176Z,7.20
2022-09-14T06:37:53.255Z,6.70
2022-09-14T06:40:27.154Z,6.20
2022-09-14T06:43:03.051Z,6.70
2022-09-14T06:45:36.854Z,6.20
2022-09-14T06:48:08.971Z,6.00
2022-09-14T06:50:41.292Z,6.20
2022-09-14T06:53:13.438Z,6.80
2022-09-14T06:55:46.414Z,6.10
2022-09-14T06:58:21.712Z,6.90
2022-09-14T07:00:54.595Z,6.40
2022-09-14T07:03:28.097Z,6.60
2022-09-14T07:06:09.006Z,7.10
2022-09-14T07:08:42.949Z,6.00
2022-09-14T07:11:17.853Z,5.80
2022-09-14T07:13:50.710Z,6.40
2022-09-14T07:16:26.596Z,6.50
2022-09-14T07:19:05.988Z,6.60
2022-09-14T07:21:38.215Z,6.50
2022-09-14T07:24:14.877Z,6.90
2022-09-14T07:26:47.188Z,6.80
2022-09-14T07:29:23.158Z,7.70
2022-09-14T07:31:57.126Z,7.10
2022-09-14T07:34:31.300Z,8.30
2022-09-14T07:37:04.492Z,7.70
2022-09-14T07:39:36.775Z,8.10
2022-09-14T07:42:09.421Z,8.80
2022-09-14T07:44:42.068Z,9.10
2022-09-14T07:47:16.471Z,9.50
2022-09-14T07:49:49.200Z,10.10
2022-09-14T07:52:21.808Z,9.70
2022-09-14T07:54:56.285Z,9.70
2022-09-14T07:57:52.314Z,9.70
2022-09-14T08:00:22.043Z,9.60
2022-09-14T08:02:58.816Z,9.10
2022-09-14T08:05:31.701Z,9.90
2022-09-14T08:08:05.676Z,7.90
2022-09-14T08:10:39.720Z,8.70
2022-09-14T08:13:13.937Z,8.30
2022-09-14T08:15:46.453Z,7.30
2022-09-14T08:18:20.834Z,10.60
2022-09-14T08:20:54.793Z,10.10
2022-09-14T08:23:29.777Z,9.10
2022-09-14T08:26:07.498Z,10.30
2022-09-14T08:28:40.224Z,10.90
2022-09-14T08:31:15.862Z,9.90
2022-09-14T08:33:51.557Z,8.60
2022-09-14T08:36:24.942Z,8.00
2022-09-14T08:38:57.020Z,8.40
2022-09-14T08:41:32.329Z,7.70
2022-09-14T08:44:13.872Z,7.20
2022-09-14T08:46:51.692Z,7.10
2022-09-14T08:49:32.402Z,7.30
2022-09-14T08:52:06.825Z,6.70
2022-09-14T08:54:42.695Z,6.90
2022-09-14T08:57:19.950Z,6.70
2022-09-14T09:00:01.079Z,6.60
2022-09-14T09:02:52.150Z,6.60
2022-09-14T09:05:39.540Z,6.20
2022-09-14T09:08:19.008Z,6.20
2022-09-14T09:10:56.059Z,5.90
2022-09-14T09:13:30.624Z,6.40
2022-09-14T09:16:04.391Z,6.00
2022-09-14T09:18:42.856Z,6.00
2022-09-14T09:21:20.045Z,6.10
2022-09-14T09:23:54.782Z,6.00
2022-09-14T09:26:31.686Z,6.20
2022-09-14T09:29:08.884Z,6.00
2022-09-14T09:31:44.549Z,6.10
2022-09-14T09:34:18.434Z,6.10
2022-09-14T09:36:51.480Z,6.20
2022-09-14T09:39:26.032Z,6.50
2022-09-14T09:42:05.281Z,6.10
2022-09-14T09:45:01.810Z,5.70
2022-09-14T09:47:41.036Z,5.90
2022-09-14T09:50:22.412Z,5.60
2022-09-14T09:52:58.196Z,5.90
2022-09-14T09:55:37.704Z,6.00
2022-09-14T10:01:22.212Z,6.00
2022-09-14T10:04:11.316Z,5.30
2022-09-14T10:06:48.396Z,5.10
2022-09-14T10:09:24.522Z,5.30
2022-09-14T10:12:04.317Z,5.10
2022-09-14T10:14:40.751Z,5.30
2022-09-14T10:17:20.067Z,5.40
2022-09-14T10:19:53.056Z,5.50
2022-09-14T10:22:32.872Z,5.40
2022-09-14T10:25:27.914Z,5.00
2022-09-14T10:28:04.886Z,5.60
2022-09-14T10:30:40.896Z,5.40
2022-09-14T10:33:16.281Z,5.40
2022-09-14T10:35:58.588Z,5.60
2022-09-14T10:38:36.472Z,5.20
2022-09-14T10:41:21.258Z,5.10
2022-09-14T10:44:23.530Z,5.80
2022-09-14T10:47:10.373Z,5.90
2022-09-14T10:49:56.729Z,5.30
2022-09-14T10:52:38.412Z,5.90
2022-09-14T10:55:37.101Z,5.70
2022-09-14T10:58:24.789Z,5.30
2022-09-14T11:01:05.389Z,5.60
2022-09-14T11:03:47.386Z,5.80
2022-09-14T11:06:30.690Z,5.30
2022-09-14T11:09:10.839Z,4.90
2022-09-14T11:11:50.597Z,5.10
2022-09-14T11:14:39.578Z,5.10
2022-09-14T11:17:56.523Z,5.40
2022-09-14T11:20:34.713Z,4.90
2022-09-14T11:23:18.854Z,5.10
2022-09-14T11:25:56.162Z,5.00
2022-09-14T11:28:30.794Z,4.50
2022-09-14T11:31:13.715Z,4.90
2022-09-14T11:33:53.548Z,4.90
2022-09-14T11:36:30.690Z,5.00
2022-09-14T11:39:16.407Z,4.90
2022-09-14T11:41:53.700Z,5.10
2022-09-14T11:44:28.424Z,4.90
2022-09-14T11:47:05.304Z,4.70
2022-09-14T11:49:52.615Z,4.90
2022-09-14T11:52:27.245Z,4.80
2022-09-14T11:55:02.942Z,5.70
2022-09-14T11:57:36.171Z,5.30
2022-09-14T12:00:43.294Z,5.50
2022-09-14T12:03:20.414Z,5.10
2022-09-14T12:05:54.692Z,4.80
2022-09-14T12:08:41.823Z,4.80
2022-09-14T12:11:34.783Z,4.80
2022-09-14T12:14:30.483Z,5.30
2022-09-14T12:17:38.754Z,4.90
2022-09-14T12:20:38.445Z,5.00
2022-09-14T12:23:25.831Z,5.50
2022-09-14T12:26:01.995Z,5.30
2022-09-14T12:28:48.517Z,5.30
2022-09-14T12:31:40.676Z,5.70
2022-09-14T12:34:21.523Z,5.80
2022-09-14T12:37:27.004Z,6.30
2022-09-14T12:40:33.840Z,6.60
2022-09-14T12:43:46.982Z,5.90
2022-09-14T12:46:51.015Z,6.50
2022-09-14T12:49:46.875Z,6.10
2022-09-14T12:52:35.044Z,5.90
2022-09-14T12:55:31.125Z,5.90
2022-09-14T12:58:09.055Z,5.60
2022-09-14T13:00:56.564Z,6.10
2022-09-14T13:03:52.719Z,5.90
2022-09-14T13:06:26.604Z,6.60
2022-09-14T13:09:06.314Z,6.70
2022-09-14T13:11:44.082Z,6.40
2022-09-14T13:14:39.814Z,6.20
2022-09-14T13:17:15.920Z,7.70
2022-09-14T13:19:57.286Z,7.10
2022-09-14T13:22:33.582Z,8.20
2022-09-14T13:25:06.894Z,8.00
2022-09-14T13:27:40.615Z,8.00
2022-09-14T13:30:23.968Z,8.10
2022-09-14T13:32:59.935Z,8.70
2022-09-14T13:35:36.295Z,7.60
2022-09-14T13:38:17.947Z,7.60
2022-09-14T13:40:55.798Z,7.80
2022-09-14T13:43:29.024Z,7.80
2022-09-14T13:46:03.119Z,7.70
2022-09-14T13:48:40.389Z,7.30
2022-09-14T13:51:15.264Z,7.00
2022-09-14T13:53:50.691Z,6.70
2022-09-14T13:56:26.706Z,6.90
2022-09-14T13:59:25.297Z,6.30
2022-09-14T14:02:00.999Z,7.00
2022-09-14T14:04:36.384Z,8.30
2022-09-14T14:07:22.361Z,7.30
2022-09-14T14:09:57.084Z,7.10
2022-09-14T14:12:32.139Z,6.60
2022-09-14T14:15:06.899Z,6.50
2022-09-14T14:17:41.240Z,7.00
2022-09-14T14:20:45.391Z,6.60
2022-09-14T14:23:22.708Z,6.40
2022-09-14T14:25:56.279Z,6.80
2022-09-14T14:28:30.631Z,6.70
2022-09-14T14:31:08.541Z,6.20
2022-09-14T14:33:48.359Z,6.70
2022-09-14T14:36:23.387Z,6.90
2022-09-14T14:38:59.781Z,7.30
2022-09-14T14:41:33.135Z,6.60
2022-09-14T14:44:07.317Z,6.80
2022-09-14T14:46:40.745Z,7.00
2022-09-14T14:49:17.167Z,7.00
2022-09-14T14:51:51.668Z,7.60
2022-09-14T14:54:29.067Z,7.20
2022-09-14T14:57:04.213Z,7.20
2022-09-14T14:59:41.544Z,6.70
2022-09-14T15:02:15.402Z,6.80
2022-09-14T15:04:50.658Z,7.70
2022-09-14T15:07:23.349Z,7.50
2022-09-14T15:10:03.173Z,8.30
2022-09-14T15:12:37.155Z,7.40
2022-09-14T15:15:18.714Z,7.00
2022-09-14T15:17:52.014Z,6.60
2022-09-14T15:20:25.243Z,6.40
2022-09-14T15:23:00.365Z,7.20
2022-09-14T15:25:32.821Z,6.90
2022-09-14T15:28:06.978Z,7.00
2022-09-14T15:30:40.920Z,7.80
2022-09-14T15:33:15.414Z,7.50
2022-09-14T15:35:47.685Z,7.70
2022-09-14T15:38:20.050Z,7.90
2022-09-14T15:40:53.420Z,8.20
2022-09-14T15:43:25.554Z,7.40
2022-09-14T15:46:04.286Z,14.60
2022-09-14T15:48:38.368Z,14.50
2022-09-14T15:51:12.963Z,12.40
2022-09-14T15:53:47.373Z,11.90
2022-09-14T15:56:21.446Z,11.80
2022-09-14T15:58:53.602Z,28.30
2022-09-14T16:01:25.961Z,13.40
2022-09-14T16:04:05.753Z,14.80
2022-09-14T16:06:42.455Z,11.70
2022-09-14T16:09:17.610Z,11.00
2022-09-14T16:11:49.855Z,10.80
2022-09-14T16:14:28.171Z,11.90
2022-09-14T16:17:03.142Z,16.00
2022-09-14T16:19:35.903Z,13.30
2022-09-14T16:22:10.547Z,13.20
2022-09-14T16:24:46.520Z,13.10
2022-09-14T16:27:21.931Z,14.20
2022-09-14T16:29:56.111Z,13.70
2022-09-14T16:32:30.448Z,11.90
2022-09-14T16:35:08.107Z,12.90
2022-09-14T16:37:41.785Z,12.90
2022-09-14T16:40:16.430Z,13.50
2022-09-14T16:42:49.836Z,12.90
2022-09-14T16:45:23.190Z,12.80
2022-09-14T16:47:56.473Z,11.70
2022-09-14T16:50:30.084Z,10.90
2022-09-14T16:53:03.597Z,10.50
2022-09-14T16:55:38.132Z,10.10
2022-09-14T16:58:11.049Z,9.40
2022-09-14T17:00:44.430Z,8.60
2022-09-14T17:03:18.607Z,8.80
2022-09-14T17:05:52.072Z,7.90
2022-09-14T17:08:25.512Z,7.70
2022-09-14T17:10:59.023Z,7.10
2022-09-14T17:13:34.063Z,6.20
2022-09-14T17:16:14.000Z,5.70
2022-09-14T17:18:49.782Z,6.30
2022-09-14T17:21:24.149Z,5.50
2022-09-14T17:23:57.197Z,5.40
2022-09-14T17:26:30.738Z,5.00
2022-09-14T17:29:04.403Z,5.20
2022-09-14T17:31:39.644Z,5.50
2022-09-14T17:34:16.199Z,5.70
2022-09-14T17:36:50.467Z,5.60
2022-09-14T17:39:24.485Z,6.30
2022-09-14T17:41:57.589Z,5.50
2022-09-14T17:44:32.897Z,6.20
2022-09-14T17:47:07.798Z,5.70
2022-09-14T17:49:42.381Z,5.80
2022-09-14T17:52:18.274Z,6.10
2022-09-14T17:54:51.469Z,6.10
2022-09-14T17:57:24.132Z,6.10
2022-09-14T17:59:57.862Z,6.40
2022-09-14T18:02:34.268Z,6.60
2022-09-14T18:05:09.557Z,7.20
2022-09-14T18:07:42.837Z,6.90
2022-09-14T18:10:18.023Z,7.90
2022-09-14T18:12:53.289Z,8.70
2022-09-14T18:15:26.763Z,7.80
2022-09-14T18:18:00.080Z,8.10
2022-09-14T18:20:36.560Z,8.00
2022-09-14T18:23:10.127Z,8.30
2022-09-14T18:25:45.812Z,7.70
2022-09-14T18:28:18.498Z,7.60
2022-09-14T18:30:51.673Z,7.90
2022-09-14T18:33:26.232Z,8.20
2022-09-14T18:35:58.965Z,7.80
2022-09-14T18:38:33.509Z,8.10
2022-09-14T18:41:12.306Z,7.90
2022-09-14T18:43:48.265Z,7.30
2022-09-14T18:46:27.083Z,7.60
2022-09-14T18:49:03.775Z,7.40
2022-09-14T18:51:37.573Z,7.50
2022-09-14T18:54:12.543Z,8.20
2022-09-14T18:56:46.320Z,7.70
2022-09-14T18:59:20.185Z,8.20
2022-09-14T19:01:53.759Z,7.80
2022-09-14T19:04:27.060Z,7.80
2022-09-14T19:07:01.386Z,8.10
2022-09-14T19:09:36.173Z,7.80
2022-09-14T19:12:10.705Z,7.80
2022-09-14T19:14:46.516Z,8.30
2022-09-14T19:17:20.645Z,8.70
2022-09-14T19:19:54.050Z,9.50
2022-09-14T19:22:29.312Z,10.90
2022-09-14T19:25:02.289Z,11.50
2022-09-14T19:27:36.088Z,11.70
2022-09-14T19:30:13.062Z,12.10
2022-09-14T19:32:47.825Z,12.80
2022-09-14T19:35:20.812Z,13.30
2022-09-14T19:37:55.521Z,14.10
2022-09-14T19:40:28.835Z,14.90
2022-09-14T19:43:03.551Z,15.20
2022-09-14T19:45:39.002Z,15.20
2022-09-14T19:48:12.851Z,13.60
2022-09-14T19:50:46.260Z,14.70
2022-09-14T19:53:19.612Z,14.20
2022-09-14T19:55:54.124Z,14.50
2022-09-14T19:58:29.112Z,13.70
2022-09-14T20:01:03.238Z,14.50
2022-09-14T20:03:39.349Z,15.20
2022-09-14T20:06:19.357Z,15.60
2022-09-14T20:08:53.941Z,16.20
2022-09-14T20:11:27.491Z,16.70
2022-09-14T20:14:02.631Z,16.70
2022-09-14T20:16:42.087Z,16.20
2022-09-14T20:19:24.152Z,15.60
2022-09-14T20:21:57.699Z,14.80
2022-09-14T20:24:32.606Z,15.40
2022-09-14T20:27:05.081Z,15.60
2022-09-14T20:29:37.786Z,16.40
2022-09-14T20:32:12.299Z,15.70
2022-09-14T20:35:09.399Z,15.00
2022-09-14T20:37:48.488Z,14.10
2022-09-14T20:40:24.051Z,13.70
2022-09-14T20:43:28.665Z,13.30
2022-09-14T20:46:05.675Z,15.40
2022-09-14T20:49:06.802Z,16.10
2022-09-14T20:52:08.749Z,17.40
2022-09-14T20:58:10.621Z,14.90
2022-09-14T21:00:47.448Z,15.10
2022-09-14T21:03:23.167Z,15.10
2022-09-14T21:06:26.689Z,14.10
2022-09-14T21:09:34.754Z,14.00
2022-09-14T21:12:35.601Z,14.30
2022-09-14T21:15:15.290Z,14.30
2022-09-14T21:17:50.923Z,14.40
2022-09-14T21:20:30.675Z,15.20
2022-09-14T21:23:09.022Z,15.90
2022-09-14T21:25:46.082Z,15.60
2022-09-14T21:28:19.106Z,14.80
2022-09-14T21:30:51.956Z,15.00
2022-09-14T21:33:24.161Z,14.90
2022-09-14T21:35:56.654Z,15.20
2022-09-14T21:38:32.286Z,15.50
2022-09-14T21:41:08.719Z,15.90
2022-09-14T21:43:42.941Z,15.10
2022-09-14T21:46:15.285Z,15.00
2022-09-14T21:48:51.424Z,15.50
2022-09-14T21:51:26.617Z,15.60
2022-09-14T21:54:00.597Z,16.20
2022-09-14T21:56:35.118Z,16.40
2022-09-14T21:59:10.096Z,16.20
2022-09-14T22:01:44.252Z,17.40
2022-09-14T22:04:18.814Z,16.30
2022-09-14T22:06:53.862Z,16.40
2022-09-14T22:09:28.334Z,17.50
2022-09-14T22:12:03.333Z,17.70
2022-09-14T22:14:36.365Z,18.70
2022-09-14T22:17:09.693Z,18.50
2022-09-14T22:19:43.467Z,19.30
2022-09-14T22:22:16.005Z,20.20
2022-09-14T22:24:48.759Z,21.80
2022-09-14T22:27:21.366Z,20.50
2022-09-14T22:29:53.657Z,20.50
2022-09-14T22:32:31.575Z,21.80
2022-09-14T22:35:08.721Z,22.20
2022-09-14T22:37:40.563Z,21.90
2022-09-14T22:40:13.800Z,23.80
2022-09-14T22:42:48.556Z,24.10
2022-09-14T22:45:22.822Z,22.60
2022-09-14T22:47:58.290Z,23.00
2022-09-14T22:50:33.413Z,24.10
2022-09-14T22:53:05.198Z,23.10
2022-09-14T22:55:40.311Z,23.20
2022-09-14T22:58:14.192Z,23.40
2022-09-14T23:00:48.540Z,24.90
2022-09-14T23:03:23.221Z,24.10
2022-09-14T23:05:58.109Z,23.00
2022-09-14T23:08:37.047Z,23.60
2022-09-14T23:11:12.348Z,23.80
2022-09-14T23:13:45.035Z,23.30
2022-09-14T23:16:20.260Z,24.80
2022-09-14T23:19:00.867Z,23.50
2022-09-14T23:21:33.943Z,23.00
2022-09-14T23:24:08.770Z,23.50
2022-09-14T23:26:42.264Z,22.80
2022-09-14T23:29:18.098Z,22.70
2022-09-14T23:31:51.072Z,22.50
2022-09-14T23:34:26.751Z,23.10
2022-09-14T23:37:03.460Z,22.80
2022-09-14T23:39:35.795Z,22.40
2022-09-14T23:42:08.484Z,21.80
2022-09-14T23:44:41.885Z,23.60
2022-09-14T23:47:15.581Z,22.30
2022-09-14T23:49:48.069Z,22.30
2022-09-14T23:52:21.692Z,21.00
2022-09-14T23:54:56.791Z,21.50
2022-09-14T23:57:29.897Z,21.00
